createdAt,value
2023-03-23T15:58:36.766Z,15.32
2023-03-23T16:01:14.675Z,15.60
2023-03-23T16:04:07.294Z,15.57
2023-03-23T16:06:41.614Z,15.52
2023-03-23T16:09:15.570Z,15.38
2023-03-23T16:11:43.758Z,15.03
2023-03-23T16:15:41.869Z,14.83
2023-03-23T16:17:22.478Z,14.69
2023-03-23T16:19:53.923Z,14.61
2023-03-23T16:22:21.817Z,14.53
2023-03-23T16:24:50.312Z,14.58
2023-03-23T16:27:18.547Z,14.38
2023-03-23T16:30:03.003Z,14.34
2023-03-23T16:35:10.929Z,14.40
2023-03-23T16:37:42.229Z,14.35
2023-03-23T16:40:14.052Z,14.32
2023-03-23T16:42:45.185Z,14.37
2023-03-23T16:45:15.689Z,14.32
2023-03-23T16:47:47.222Z,14.25
2023-03-23T16:50:16.949Z,14.27
2023-03-23T16:52:48.011Z,14.13
2023-03-23T16:55:17.920Z,14.11
2023-03-23T16:57:47.050Z,14.11
2023-03-23T17:00:23.721Z,14.13
2023-03-23T17:02:56.827Z,14.06
2023-03-23T17:05:35.348Z,14.02
2023-03-23T17:08:07.705Z,13.94
2023-03-23T17:10:41.046Z,14.04
2023-03-23T17:13:09.235Z,14.04
2023-03-23T17:15:51.977Z,14.01
2023-03-23T17:18:21.755Z,13.95
2023-03-23T17:20:49.630Z,13.97
2023-03-23T17:23:20.211Z,13.90
2023-03-23T17:26:07.504Z,13.86
2023-03-23T17:28:45.726Z,13.90
2023-03-23T17:31:24.505Z,13.91
2023-03-23T17:33:52.856Z,13.81
2023-03-23T17:36:20.677Z,13.82
2023-03-23T17:38:52.500Z,13.80
2023-03-23T17:41:25.057Z,13.79
2023-03-23T17:43:54.849Z,13.66
2023-03-23T17:46:27.561Z,13.69
2023-03-23T17:49:06.189Z,13.55
2023-03-23T17:51:39.904Z,13.61
2023-03-23T17:54:08.764Z,13.54
2023-03-23T17:56:36.645Z,13.60
2023-03-23T17:59:04.305Z,13.57
2023-03-23T18:01:34.332Z,13.59
2023-03-23T18:04:06.897Z,13.61
2023-03-23T18:09:22.155Z,13.65
2023-03-23T18:11:57.031Z,13.60
2023-03-23T18:14:42.277Z,13.63
2023-03-23T18:17:12.107Z,13.67
2023-03-23T18:19:52.890Z,13.62
2023-03-23T18:22:24.856Z,13.55
2023-03-23T18:25:05.658Z,13.65
2023-03-23T18:30:34.870Z,13.51
2023-03-23T18:33:34.678Z,13.32
2023-03-23T18:36:02.284Z,13.31
2023-03-23T18:38:29.945Z,13.17
2023-03-23T18:41:05.465Z,13.09
2023-03-23T18:43:35.958Z,13.04
2023-03-23T18:46:05.133Z,12.87
2023-03-23T18:48:36.401Z,12.57
2023-03-23T18:51:35.379Z,12.47
2023-03-23T18:54:07.752Z,12.56
2023-03-23T18:56:35.117Z,12.45
2023-03-23T18:59:02.809Z,12.27
2023-03-23T19:01:33.125Z,12.41
2023-03-23T19:04:06.585Z,12.47
2023-03-23T19:06:38.156Z,12.39
2023-03-23T19:09:09.641Z,12.20
2023-03-23T19:11:37.205Z,12.29
2023-03-23T19:14:33.473Z,12.25
2023-03-23T19:17:14.008Z,12.27
2023-03-23T19:20:16.205Z,12.23
2023-03-23T19:22:47.821Z,12.20
2023-03-23T19:25:33.268Z,12.20
2023-03-23T19:30:34.114Z,12.16
2023-03-23T19:33:02.690Z,12.11
2023-03-23T19:35:37.585Z,12.12
2023-03-23T19:38:07.052Z,12.12
2023-03-23T19:40:40.899Z,12.21
2023-03-23T19:43:10.692Z,12.13
2023-03-23T19:45:41.825Z,12.13
2023-03-23T19:48:10.669Z,12.13
2023-03-23T19:50:43.688Z,12.06
2023-03-23T19:53:19.201Z,12.00
2023-03-23T19:56:04.863Z,11.98
2023-03-23T19:58:32.747Z,11.98
2023-03-23T20:01:03.119Z,11.92
2023-03-23T20:03:34.906Z,11.95
2023-03-23T20:06:07.038Z,11.88
2023-03-23T20:08:35.062Z,11.88
2023-03-23T20:11:04.762Z,11.87
2023-03-23T20:17:15.135Z,11.90
2023-03-23T20:20:10.446Z,11.91
2023-03-23T20:23:08.417Z,11.86
2023-03-23T20:25:52.516Z,11.85
2023-03-23T20:28:20.840Z,11.83
2023-03-23T20:31:19.282Z,11.84
2023-03-23T20:34:10.131Z,11.86
2023-03-23T20:37:44.487Z,11.84
2023-03-23T20:40:51.864Z,11.87
2023-03-23T20:43:29.746Z,11.87
2023-03-23T20:45:58.543Z,11.86
2023-03-23T20:48:27.636Z,11.85
2023-03-23T20:50:55.672Z,11.92
2023-03-23T20:53:27.740Z,11.87
2023-03-23T20:56:02.305Z,11.93
2023-03-23T20:58:36.300Z,11.83
2023-03-23T21:02:27.740Z,11.91
2023-03-23T21:05:09.388Z,11.92
2023-03-23T21:07:37.017Z,11.85
2023-03-23T21:10:33.249Z,11.98
2023-03-23T21:13:07.955Z,11.92
2023-03-23T21:16:13.258Z,11.84
2023-03-23T21:19:06.629Z,11.71
2023-03-23T21:21:56.672Z,11.79
2023-03-23T21:24:37.507Z,11.73
2023-03-23T21:27:21.544Z,11.67
2023-03-23T21:30:28.104Z,11.71
2023-03-23T21:36:13.379Z,11.69
2023-03-23T21:39:07.211Z,11.70
2023-03-23T21:49:15.121Z,11.72
2023-03-23T21:54:45.767Z,11.59
2023-03-23T21:57:35.605Z,11.78
2023-03-23T22:00:56.306Z,11.76
2023-03-23T22:13:22.108Z,11.77
2023-03-23T22:29:28.192Z,11.78
2023-03-23T22:35:48.062Z,11.71
2023-03-23T22:38:51.962Z,11.64
2023-03-23T22:41:43.798Z,11.70
2023-03-23T22:44:50.374Z,11.77
2023-03-23T22:47:21.517Z,11.70
2023-03-23T22:49:52.163Z,11.70
2023-03-23T22:52:19.612Z,11.61
2023-03-23T22:54:48.720Z,11.69
2023-03-23T22:57:18.958Z,11.63
2023-03-23T23:00:39.530Z,11.74
2023-03-23T23:04:14.101Z,11.54
2023-03-23T23:07:14.835Z,11.56
2023-03-23T23:09:42.975Z,11.52
2023-03-23T23:12:13.943Z,11.49
2023-03-23T23:14:45.266Z,11.51
2023-03-23T23:17:44.629Z,11.44
2023-03-23T23:20:42.584Z,11.44
2023-03-23T23:23:58.129Z,11.51
2023-03-23T23:26:33.660Z,11.42
2023-03-23T23:32:49.061Z,11.39
2023-03-23T23:35:19.162Z,11.43
2023-03-23T23:38:23.131Z,11.35
2023-03-23T23:41:38.350Z,11.37
2023-03-23T23:44:12.640Z,11.38
2023-03-23T23:47:37.787Z,11.41
2023-03-23T23:50:03.260Z,11.39
2023-03-23T23:56:28.716Z,11.42
